Main page
METAR-TAF:

METAR-TAF

Airports :

Bahrain International Airport

Bahrain, Bahrain

latitude: 26-16N, longitude: 050-39E, elevation: 2 m

Current weather observation

The report was made 22 minutes ago, at 19:30 UTC
Wind 12 kt from the Northwest
Temperature 16°C
Humidity 59%
Pressure 1022 hPa
Visibility 10 km or more
no clouds below 1500 m and no cumulonimbus

METAR: OBBI 271930Z 32012KT CAVOK 16/08 Q1022 NOSIG

Time: 22:52 (19:52 UTC)

Forecast

The report was made 2 hours and 52 minutes ago, at 17:00 UTC
Forecast valid from 27 at 18 UTC to 29 at 00 UTC
Wind 12 kt from the Northwest
Visibility 10 km or more
Few clouds at a height of 3000 ft

TAF: OBBI 271700Z 2718/2900 32012KT 9999 FEW030

Weather observations and forecasts of more than 4000 airports (METAR and TAF reports).

The available stations are represented by yellow and red dots on the map.

Hover mouse over dot to see the name of the station.

Then click to see weather observations and forecasts.

To change the map : click on the green buttons with a black cross to zoom in, on the green button with a dash to zoom out, or on the green arrows for adjacent maps.


METAR-TAF: